sensor_id;sensor_type;location;lat;lon;timestamp;pressure;altitude;pressure_sealevel;temperature;humidity
41062;BME280;26812;42.662;23.352;2023-09-08T00:00:46;95445.25;;;20.97;61.57
41062;BME280;26812;42.662;23.352;2023-09-08T00:03:12;95436.69;;;21.02;62.02
41062;BME280;26812;42.662;23.352;2023-09-08T00:05:37;95451.56;;;21.27;61.50
41062;BME280;26812;42.662;23.352;2023-09-08T00:08:03;95422.94;;;21.25;61.14
41062;BME280;26812;42.662;23.352;2023-09-08T00:10:29;95437.28;;;21.45;60.67
41062;BME280;26812;42.662;23.352;2023-09-08T00:12:54;95436.00;;;21.08;61.15
41062;BME280;26812;42.662;23.352;2023-09-08T00:15:19;95438.72;;;20.78;62.08
41062;BME280;26812;42.662;23.352;2023-09-08T00:17:45;95423.97;;;20.87;61.44
41062;BME280;26812;42.662;23.352;2023-09-08T00:20:12;95427.72;;;20.75;61.15
41062;BME280;26812;42.662;23.352;2023-09-08T00:22:38;95428.66;;;20.37;61.94
41062;BME280;26812;42.662;23.352;2023-09-08T00:25:04;95423.16;;;20.56;60.59
41062;BME280;26812;42.662;23.352;2023-09-08T00:27:30;95422.91;;;20.42;60.32
41062;BME280;26812;42.662;23.352;2023-09-08T00:29:56;95411.69;;;20.51;60.62
41062;BME280;26812;42.662;23.352;2023-09-08T00:32:22;95423.25;;;20.63;58.74
41062;BME280;26812;42.662;23.352;2023-09-08T00:34:47;95427.75;;;20.78;59.18
41062;BME280;26812;42.662;23.352;2023-09-08T00:37:12;95400.84;;;20.08;59.45
41062;BME280;26812;42.662;23.352;2023-09-08T00:39:38;95427.09;;;20.13;59.57
41062;BME280;26812;42.662;23.352;2023-09-08T00:42:03;95426.84;;;20.44;58.23
41062;BME280;26812;42.662;23.352;2023-09-08T00:44:29;95424.25;;;20.52;57.96
41062;BME280;26812;42.662;23.352;2023-09-08T00:46:54;95417.44;;;20.68;57.16
41062;BME280;26812;42.662;23.352;2023-09-08T00:49:20;95412.75;;;20.69;57.56
41062;BME280;26812;42.662;23.352;2023-09-08T00:54:59;95417.22;;;20.81;56.78
41062;BME280;26812;42.662;23.352;2023-09-08T00:57:24;95420.81;;;20.85;56.26
41062;BME280;26812;42.662;23.352;2023-09-08T00:59:50;95413.22;;;21.01;55.60
41062;BME280;26812;42.662;23.352;2023-09-08T01:02:15;95389.22;;;20.64;55.99
41062;BME280;26812;42.662;23.352;2023-09-08T01:04:41;95390.69;;;20.85;55.49
41062;BME280;26812;42.662;23.352;2023-09-08T01:07:07;95417.91;;;21.00;55.90
41062;BME280;26812;42.662;23.352;2023-09-08T01:09:34;95422.59;;;21.00;55.52
41062;BME280;26812;42.662;23.352;2023-09-08T01:12:02;95413.91;;;20.94;55.70
41062;BME280;26812;42.662;23.352;2023-09-08T01:14:29;95397.25;;;20.80;55.24
41062;BME280;26812;42.662;23.352;2023-09-08T01:16:54;95409.88;;;20.58;56.13
41062;BME280;26812;42.662;23.352;2023-09-08T01:19:20;95405.34;;;20.69;56.38
41062;BME280;26812;42.662;23.352;2023-09-08T01:26:57;95418.72;;;20.74;56.56
41062;BME280;26812;42.662;23.352;2023-09-08T01:29:23;95408.81;;;20.40;57.24
41062;BME280;26812;42.662;23.352;2023-09-08T01:31:50;95418.09;;;20.58;57.70
41062;BME280;26812;42.662;23.352;2023-09-08T01:34:16;95411.56;;;20.66;57.61
41062;BME280;26812;42.662;23.352;2023-09-08T01:36:42;95414.28;;;20.66;57.82
41062;BME280;26812;42.662;23.352;2023-09-08T01:39:07;95400.31;;;20.75;57.33
41062;BME280;26812;42.662;23.352;2023-09-08T01:41:33;95387.97;;;20.58;57.42
41062;BME280;26812;42.662;23.352;2023-09-08T01:43:59;95393.31;;;20.77;57.16
41062;BME280;26812;42.662;23.352;2023-09-08T01:46:25;95392.69;;;20.88;57.07
41062;BME280;26812;42.662;23.352;2023-09-08T01:48:50;95395.69;;;20.79;57.37
41062;BME280;26812;42.662;23.352;2023-09-08T01:51:15;95407.78;;;21.04;57.27
41062;BME280;26812;42.662;23.352;2023-09-08T01:53:41;95396.16;;;20.55;58.47
41062;BME280;26812;42.662;23.352;2023-09-08T01:56:07;95400.50;;;20.59;58.58
41062;BME280;26812;42.662;23.352;2023-09-08T01:58:45;95414.25;;;20.63;58.93
41062;BME280;26812;42.662;23.352;2023-09-08T02:01:30;95398.66;;;20.67;58.64
41062;BME280;26812;42.662;23.352;2023-09-08T02:03:55;95403.06;;;20.49;59.49
41062;BME280;26812;42.662;23.352;2023-09-08T02:06:20;95402.50;;;20.62;59.24
41062;BME280;26812;42.662;23.352;2023-09-08T02:08:46;95402.69;;;20.76;59.04
41062;BME280;26812;42.662;23.352;2023-09-08T02:11:11;95403.16;;;20.52;59.91
41062;BME280;26812;42.662;23.352;2023-09-08T02:13:36;95398.75;;;20.74;59.78
41062;BME280;26812;42.662;23.352;2023-09-08T02:16:02;95390.03;;;20.65;60.11
41062;BME280;26812;42.662;23.352;2023-09-08T02:18:27;95383.28;;;20.59;60.47
41062;BME280;26812;42.662;23.352;2023-09-08T02:20:53;95383.84;;;20.71;60.31
41062;BME280;26812;42.662;23.352;2023-09-08T02:23:18;95365.53;;;20.49;60.81
41062;BME280;26812;42.662;23.352;2023-09-08T02:25:44;95384.44;;;20.58;61.32
41062;BME280;26812;42.662;23.352;2023-09-08T02:28:09;95380.63;;;20.39;62.07
41062;BME280;26812;42.662;23.352;2023-09-08T02:30:34;95373.78;;;20.26;62.55
41062;BME280;26812;42.662;23.352;2023-09-08T02:33:00;95381.06;;;20.41;62.22
41062;BME280;26812;42.662;23.352;2023-09-08T02:35:28;95377.34;;;20.53;62.07
41062;BME280;26812;42.662;23.352;2023-09-08T02:37:53;95383.66;;;20.57;61.98
41062;BME280;26812;42.662;23.352;2023-09-08T02:40:18;95374.16;;;20.25;63.07
41062;BME280;26812;42.662;23.352;2023-09-08T02:42:45;95379.91;;;20.20;63.60
41062;BME280;26812;42.662;23.352;2023-09-08T02:45:11;95373.00;;;20.26;63.47
41062;BME280;26812;42.662;23.352;2023-09-08T02:47:36;95351.75;;;20.19;63.65
41062;BME280;26812;42.662;23.352;2023-09-08T02:50:02;95383.53;;;20.50;63.02
41062;BME280;26812;42.662;23.352;2023-09-08T02:52:30;95384.03;;;20.56;63.08
41062;BME280;26812;42.662;23.352;2023-09-08T02:54:55;95382.69;;;20.46;63.09
41062;BME280;26812;42.662;23.352;2023-09-08T02:57:21;95378.06;;;20.24;63.84
41062;BME280;26812;42.662;23.352;2023-09-08T02:59:50;95376.91;;;20.25;64.22
41062;BME280;26812;42.662;23.352;2023-09-08T03:02:21;95373.09;;;20.33;64.39
41062;BME280;26812;42.662;23.352;2023-09-08T03:04:46;95377.84;;;20.13;65.04
41062;BME280;26812;42.662;23.352;2023-09-08T03:07:12;95374.09;;;20.21;64.68
41062;BME280;26812;42.662;23.352;2023-09-08T03:09:37;95352.56;;;19.93;65.52
41062;BME280;26812;42.662;23.352;2023-09-08T03:12:03;95361.59;;;19.97;65.81
41062;BME280;26812;42.662;23.352;2023-09-08T03:14:28;95343.06;;;19.87;65.91
41062;BME280;26812;42.662;23.352;2023-09-08T03:16:54;95362.44;;;20.01;66.06
41062;BME280;26812;42.662;23.352;2023-09-08T03:19:19;95372.66;;;20.04;66.07
41062;BME280;26812;42.662;23.352;2023-09-08T03:21:44;95363.41;;;20.12;65.62
41062;BME280;26812;42.662;23.352;2023-09-08T03:24:10;95359.44;;;20.10;65.77
41062;BME280;26812;42.662;23.352;2023-09-08T03:26:35;95375.44;;;20.08;66.06
41062;BME280;26812;42.662;23.352;2023-09-08T03:29:00;95373.59;;;20.15;66.11
41062;BME280;26812;42.662;23.352;2023-09-08T03:31:26;95375.84;;;20.10;66.12
41062;BME280;26812;42.662;23.352;2023-09-08T03:33:52;95370.28;;;20.03;66.49
41062;BME280;26812;42.662;23.352;2023-09-08T03:36:17;95363.59;;;20.00;66.76
41062;BME280;26812;42.662;23.352;2023-09-08T03:38:43;95378.44;;;19.99;66.62
41062;BME280;26812;42.662;23.352;2023-09-08T03:41:08;95356.19;;;19.78;67.22
41062;BME280;26812;42.662;23.352;2023-09-08T03:43:34;95366.56;;;19.69;67.49
41062;BME280;26812;42.662;23.352;2023-09-08T03:45:59;95374.22;;;19.82;67.52
41062;BME280;26812;42.662;23.352;2023-09-08T03:48:24;95359.47;;;19.87;67.11
41062;BME280;26812;42.662;23.352;2023-09-08T03:50:50;95368.03;;;19.85;67.66
41062;BME280;26812;42.662;23.352;2023-09-08T03:53:15;95362.03;;;19.99;67.29
41062;BME280;26812;42.662;23.352;2023-09-08T03:55:40;95367.97;;;19.82;67.93
41062;BME280;26812;42.662;23.352;2023-09-08T03:58:06;95377.22;;;19.74;68.37
41062;BME280;26812;42.662;23.352;2023-09-08T04:00:31;95376.66;;;19.88;68.06
41062;BME280;26812;42.662;23.352;2023-09-08T04:02:57;95347.31;;;19.42;68.87
41062;BME280;26812;42.662;23.352;2023-09-08T04:05:22;95365.31;;;19.63;68.97
41062;BME280;26812;42.662;23.352;2023-09-08T04:07:47;95376.00;;;19.52;69.60
41062;BME280;26812;42.662;23.352;2023-09-08T04:10:13;95370.53;;;19.52;69.71
41062;BME280;26812;42.662;23.352;2023-09-08T04:12:41;95380.84;;;19.81;68.77
41062;BME280;26812;42.662;23.352;2023-09-08T04:15:07;95377.81;;;19.44;69.10
41062;BME280;26812;42.662;23.352;2023-09-08T04:17:33;95377.63;;;19.14;70.60
41062;BME280;26812;42.662;23.352;2023-09-08T04:19:58;95374.81;;;19.11;71.65
41062;BME280;26812;42.662;23.352;2023-09-08T04:22:24;95364.75;;;18.96;71.15
41062;BME280;26812;42.662;23.352;2023-09-08T04:24:49;95384.66;;;18.96;71.65
41062;BME280;26812;42.662;23.352;2023-09-08T04:27:15;95384.75;;;19.00;71.91
41062;BME280;26812;42.662;23.352;2023-09-08T04:29:40;95384.22;;;18.94;71.91
41062;BME280;26812;42.662;23.352;2023-09-08T04:32:06;95389.91;;;19.24;70.99
41062;BME280;26812;42.662;23.352;2023-09-08T04:34:41;95382.56;;;18.89;71.93
41062;BME280;26812;42.662;23.352;2023-09-08T04:37:07;95383.28;;;18.86;72.00
41062;BME280;26812;42.662;23.352;2023-09-08T04:39:33;95396.06;;;18.82;72.61
41062;BME280;26812;42.662;23.352;2023-09-08T04:41:59;95391.06;;;19.04;71.64
41062;BME280;26812;42.662;23.352;2023-09-08T04:44:25;95393.00;;;19.03;71.91
41062;BME280;26812;42.662;23.352;2023-09-08T04:46:51;95400.84;;;19.05;72.44
41062;BME280;26812;42.662;23.352;2023-09-08T04:49:17;95397.72;;;18.87;72.84
41062;BME280;26812;42.662;23.352;2023-09-08T04:51:43;95378.69;;;18.90;72.46
41062;BME280;26812;42.662;23.352;2023-09-08T04:54:09;95386.03;;;19.06;72.12
41062;BME280;26812;42.662;23.352;2023-09-08T04:56:34;95378.03;;;19.16;71.65
41062;BME280;26812;42.662;23.352;2023-09-08T04:58:59;95394.72;;;19.31;70.75
41062;BME280;26812;42.662;23.352;2023-09-08T05:01:29;95375.03;;;19.21;70.68
41062;BME280;26812;42.662;23.352;2023-09-08T05:03:57;95381.25;;;19.41;70.63
41062;BME280;26812;42.662;23.352;2023-09-08T05:06:23;95394.22;;;19.64;69.89
41062;BME280;26812;42.662;23.352;2023-09-08T05:08:48;95392.75;;;19.50;70.51
41062;BME280;26812;42.662;23.352;2023-09-08T05:11:14;95402.34;;;19.41;71.57
41062;BME280;26812;42.662;23.352;2023-09-08T05:13:40;95379.03;;;19.47;70.76
41062;BME280;26812;42.662;23.352;2023-09-08T05:16:05;95403.03;;;19.76;70.36
41062;BME280;26812;42.662;23.352;2023-09-08T05:18:40;95391.47;;;19.64;68.63
41062;BME280;26812;42.662;23.352;2023-09-08T05:21:06;95390.22;;;20.03;67.21
41062;BME280;26812;42.662;23.352;2023-09-08T05:23:32;95389.03;;;20.27;66.54
41062;BME280;26812;42.662;23.352;2023-09-08T05:25:58;95393.34;;;20.28;65.34
41062;BME280;26812;42.662;23.352;2023-09-08T05:28:23;95391.69;;;20.46;64.42
41062;BME280;26812;42.662;23.352;2023-09-08T05:30:52;95387.94;;;20.55;64.03
41062;BME280;26812;42.662;23.352;2023-09-08T05:33:18;95397.34;;;20.84;63.22
41062;BME280;26812;42.662;23.352;2023-09-08T05:35:45;95404.13;;;20.67;62.76
41062;BME280;26812;42.662;23.352;2023-09-08T05:38:10;95408.16;;;20.76;62.58
41062;BME280;26812;42.662;23.352;2023-09-08T05:40:36;95391.44;;;20.82;61.61
41062;BME280;26812;42.662;23.352;2023-09-08T05:43:01;95401.75;;;21.22;61.04
41062;BME280;26812;42.662;23.352;2023-09-08T05:45:27;95392.91;;;21.35;60.42
41062;BME280;26812;42.662;23.352;2023-09-08T05:47:52;95409.38;;;21.73;59.22
41062;BME280;26812;42.662;23.352;2023-09-08T05:50:18;95411.13;;;21.88;56.91
41062;BME280;26812;42.662;23.352;2023-09-08T05:52:43;95412.28;;;21.87;55.12
41062;BME280;26812;42.662;23.352;2023-09-08T05:55:09;95418.16;;;21.85;55.88
41062;BME280;26812;42.662;23.352;2023-09-08T05:57:34;95406.00;;;21.86;54.77
41062;BME280;26812;42.662;23.352;2023-09-08T06:00:00;95401.28;;;21.83;54.69
41062;BME280;26812;42.662;23.352;2023-09-08T06:02:26;95417.28;;;21.78;54.58
41062;BME280;26812;42.662;23.352;2023-09-08T06:04:51;95407.41;;;22.07;53.99
41062;BME280;26812;42.662;23.352;2023-09-08T06:07:16;95405.25;;;21.89;53.55
41062;BME280;26812;42.662;23.352;2023-09-08T06:09:42;95424.84;;;22.28;52.85
41062;BME280;26812;42.662;23.352;2023-09-08T06:12:07;95401.94;;;22.07;53.72
41062;BME280;26812;42.662;23.352;2023-09-08T06:14:32;95394.28;;;21.89;53.84
41062;BME280;26812;42.662;23.352;2023-09-08T06:16:58;95405.13;;;22.16;52.30
41062;BME280;26812;42.662;23.352;2023-09-08T06:19:23;95414.75;;;22.02;53.07
41062;BME280;26812;42.662;23.352;2023-09-08T06:21:48;95416.97;;;22.23;52.83
41062;BME280;26812;42.662;23.352;2023-09-08T06:24:14;95414.00;;;22.43;51.69
41062;BME280;26812;42.662;23.352;2023-09-08T06:26:39;95426.00;;;22.27;50.54
41062;BME280;26812;42.662;23.352;2023-09-08T06:29:05;95409.88;;;22.19;49.67
41062;BME280;26812;42.662;23.352;2023-09-08T06:31:30;95409.38;;;22.57;49.41
41062;BME280;26812;42.662;23.352;2023-09-08T06:33:56;95415.56;;;22.44;47.63
41062;BME280;26812;42.662;23.352;2023-09-08T06:36:21;95435.50;;;22.85;47.26
41062;BME280;26812;42.662;23.352;2023-09-08T06:38:47;95429.75;;;22.56;46.89
41062;BME280;26812;42.662;23.352;2023-09-08T06:41:12;95435.25;;;22.56;46.73
41062;BME280;26812;42.662;23.352;2023-09-08T06:43:38;95442.25;;;22.98;45.87
41062;BME280;26812;42.662;23.352;2023-09-08T06:46:04;95434.03;;;22.98;46.08
41062;BME280;26812;42.662;23.352;2023-09-08T06:48:30;95413.72;;;22.62;45.76
41062;BME280;26812;42.662;23.352;2023-09-08T06:50:55;95432.06;;;23.02;45.08
41062;BME280;26812;42.662;23.352;2023-09-08T06:53:22;95443.66;;;23.40;44.86
41062;BME280;26812;42.662;23.352;2023-09-08T06:55:48;95436.63;;;23.53;44.30
41062;BME280;26812;42.662;23.352;2023-09-08T06:58:13;95433.66;;;24.01;44.01
41062;BME280;26812;42.662;23.352;2023-09-08T07:00:40;95401.47;;;24.33;43.01
41062;BME280;26812;42.662;23.352;2023-09-08T07:03:06;95432.16;;;24.46;41.33
41062;BME280;26812;42.662;23.352;2023-09-08T07:05:31;95429.78;;;24.41;41.06
41062;BME280;26812;42.662;23.352;2023-09-08T07:07:59;95432.53;;;24.44;41.70
41062;BME280;26812;42.662;23.352;2023-09-08T07:10:27;95432.16;;;24.67;40.79
41062;BME280;26812;42.662;23.352;2023-09-08T07:12:52;95433.72;;;24.68;40.34
41062;BME280;26812;42.662;23.352;2023-09-08T07:15:18;95425.06;;;24.49;41.09
41062;BME280;26812;42.662;23.352;2023-09-08T07:17:43;95442.00;;;24.83;40.63
41062;BME280;26812;42.662;23.352;2023-09-08T07:20:09;95438.41;;;25.03;39.88
41062;BME280;26812;42.662;23.352;2023-09-08T07:22:34;95435.31;;;24.62;39.94
41062;BME280;26812;42.662;23.352;2023-09-08T07:25:00;95433.34;;;24.63;39.97
41062;BME280;26812;42.662;23.352;2023-09-08T07:27:25;95423.84;;;24.78;39.25
41062;BME280;26812;42.662;23.352;2023-09-08T07:29:51;95428.19;;;24.26;40.10
41062;BME280;26812;42.662;23.352;2023-09-08T07:32:17;95417.56;;;24.88;38.72
41062;BME280;26812;42.662;23.352;2023-09-08T07:34:42;95408.31;;;25.55;37.88
41062;BME280;26812;42.662;23.352;2023-09-08T07:37:08;95413.25;;;25.96;37.10
41062;BME280;26812;42.662;23.352;2023-09-08T07:39:33;95419.97;;;25.91;36.43
41062;BME280;26812;42.662;23.352;2023-09-08T07:42:00;95423.22;;;25.79;37.24
41062;BME280;26812;42.662;23.352;2023-09-08T07:44:33;95416.97;;;26.30;36.84
41062;BME280;26812;42.662;23.352;2023-09-08T07:46:58;95387.06;;;25.52;37.03
41062;BME280;26812;42.662;23.352;2023-09-08T07:49:23;95417.78;;;26.27;35.87
41062;BME280;26812;42.662;23.352;2023-09-08T07:51:49;95377.34;;;25.96;35.83
41062;BME280;26812;42.662;23.352;2023-09-08T07:54:14;95428.00;;;26.38;37.36
41062;BME280;26812;42.662;23.352;2023-09-08T07:56:40;95411.53;;;27.47;35.61
41062;BME280;26812;42.662;23.352;2023-09-08T07:59:08;95412.09;;;27.99;33.41
41062;BME280;26812;42.662;23.352;2023-09-08T08:01:33;95444.72;;;28.42;32.93
41062;BME280;26812;42.662;23.352;2023-09-08T08:03:59;95421.56;;;27.71;33.88
41062;BME280;26812;42.662;23.352;2023-09-08T08:06:24;95402.91;;;27.41;34.85
41062;BME280;26812;42.662;23.352;2023-09-08T08:08:49;95424.13;;;27.51;33.91
41062;BME280;26812;42.662;23.352;2023-09-08T08:11:16;95411.22;;;26.07;35.50
41062;BME280;26812;42.662;23.352;2023-09-08T08:13:46;95402.31;;;25.82;36.30
41062;BME280;26812;42.662;23.352;2023-09-08T08:16:11;95403.38;;;26.54;35.58
41062;BME280;26812;42.662;23.352;2023-09-08T08:18:37;95401.56;;;26.29;35.34
41062;BME280;26812;42.662;23.352;2023-09-08T08:21:02;95405.91;;;25.72;36.06
41062;BME280;26812;42.662;23.352;2023-09-08T08:23:29;95411.34;;;25.86;36.42
41062;BME280;26812;42.662;23.352;2023-09-08T08:25:55;95408.69;;;25.57;37.55
41062;BME280;26812;42.662;23.352;2023-09-08T08:28:21;95396.44;;;25.65;37.52
41062;BME280;26812;42.662;23.352;2023-09-08T08:30:46;95391.41;;;26.19;35.84
41062;BME280;26812;42.662;23.352;2023-09-08T08:33:13;95378.97;;;25.90;37.01
41062;BME280;26812;42.662;23.352;2023-09-08T08:35:39;95406.38;;;26.22;36.20
41062;BME280;26812;42.662;23.352;2023-09-08T08:38:04;95393.13;;;26.54;36.21
41062;BME280;26812;42.662;23.352;2023-09-08T08:40:30;95374.91;;;26.12;34.98
41062;BME280;26812;42.662;23.352;2023-09-08T08:42:57;95385.09;;;25.53;35.54
41062;BME280;26812;42.662;23.352;2023-09-08T08:45:23;95389.16;;;25.23;36.40
41062;BME280;26812;42.662;23.352;2023-09-08T08:47:50;95386.59;;;25.61;35.53
41062;BME280;26812;42.662;23.352;2023-09-08T08:50:17;95384.19;;;25.81;35.88
41062;BME280;26812;42.662;23.352;2023-09-08T08:52:43;95393.38;;;25.49;35.05
41062;BME280;26812;42.662;23.352;2023-09-08T08:55:09;95393.00;;;25.40;36.25
41062;BME280;26812;42.662;23.352;2023-09-08T08:57:37;95380.13;;;25.96;35.77
41062;BME280;26812;42.662;23.352;2023-09-08T09:00:06;95385.72;;;26.44;34.71
41062;BME280;26812;42.662;23.352;2023-09-08T09:02:36;95391.41;;;26.19;35.58
41062;BME280;26812;42.662;23.352;2023-09-08T09:05:02;95389.16;;;26.04;35.84
41062;BME280;26812;42.662;23.352;2023-09-08T09:07:28;95380.72;;;25.55;35.34
41062;BME280;26812;42.662;23.352;2023-09-08T09:09:54;95389.25;;;25.86;36.27
41062;BME280;26812;42.662;23.352;2023-09-08T09:12:28;95383.19;;;26.12;35.51
41062;BME280;26812;42.662;23.352;2023-09-08T09:14:54;95389.75;;;25.74;36.42
41062;BME280;26812;42.662;23.352;2023-09-08T09:17:19;95387.84;;;26.19;36.22
41062;BME280;26812;42.662;23.352;2023-09-08T09:19:45;95372.75;;;26.30;34.87
41062;BME280;26812;42.662;23.352;2023-09-08T09:22:10;95378.97;;;25.93;36.19
41062;BME280;26812;42.662;23.352;2023-09-08T09:24:36;95383.94;;;26.16;36.34
41062;BME280;26812;42.662;23.352;2023-09-08T09:27:04;95386.34;;;26.11;37.15
41062;BME280;26812;42.662;23.352;2023-09-08T09:29:34;95380.66;;;26.36;36.24
41062;BME280;26812;42.662;23.352;2023-09-08T09:32:06;95385.00;;;26.33;34.99
41062;BME280;26812;42.662;23.352;2023-09-08T09:34:35;95371.41;;;26.05;35.74
41062;BME280;26812;42.662;23.352;2023-09-08T09:37:00;95355.00;;;25.80;35.51
41062;BME280;26812;42.662;23.352;2023-09-08T09:39:26;95373.19;;;25.66;35.68
41062;BME280;26812;42.662;23.352;2023-09-08T09:41:56;95364.00;;;24.93;37.12
41062;BME280;26812;42.662;23.352;2023-09-08T09:44:22;95383.66;;;25.20;37.16
41062;BME280;26812;42.662;23.352;2023-09-08T09:46:51;95382.75;;;25.48;37.92
41062;BME280;26812;42.662;23.352;2023-09-08T09:49:16;95367.47;;;25.98;36.25
41062;BME280;26812;42.662;23.352;2023-09-08T09:51:50;95377.91;;;26.36;36.07
41062;BME280;26812;42.662;23.352;2023-09-08T09:54:16;95375.91;;;26.33;34.62
41062;BME280;26812;42.662;23.352;2023-09-08T09:56:43;95371.47;;;26.49;34.55
41062;BME280;26812;42.662;23.352;2023-09-08T09:59:09;95375.53;;;26.30;35.75
41062;BME280;26812;42.662;23.352;2023-09-08T10:01:36;95379.47;;;26.29;35.90
41062;BME280;26812;42.662;23.352;2023-09-08T10:04:02;95368.97;;;26.62;36.02
41062;BME280;26812;42.662;23.352;2023-09-08T10:06:31;95367.28;;;26.75;35.36
41062;BME280;26812;42.662;23.352;2023-09-08T10:08:58;95352.16;;;26.46;34.84
41062;BME280;26812;42.662;23.352;2023-09-08T10:11:28;95348.78;;;26.69;36.35
41062;BME280;26812;42.662;23.352;2023-09-08T10:13:58;95352.38;;;26.62;35.57
41062;BME280;26812;42.662;23.352;2023-09-08T10:16:26;95342.00;;;26.36;36.71
41062;BME280;26812;42.662;23.352;2023-09-08T10:18:52;95341.41;;;26.55;36.11
41062;BME280;26812;42.662;23.352;2023-09-08T10:21:21;95354.47;;;26.51;36.09
41062;BME280;26812;42.662;23.352;2023-09-08T10:24:05;95357.50;;;26.67;36.21
41062;BME280;26812;42.662;23.352;2023-09-08T10:26:40;95349.25;;;26.60;35.02
41062;BME280;26812;42.662;23.352;2023-09-08T10:29:09;95359.63;;;26.49;36.29
41062;BME280;26812;42.662;23.352;2023-09-08T10:31:35;95345.28;;;26.16;36.03
41062;BME280;26812;42.662;23.352;2023-09-08T10:34:01;95351.31;;;25.97;36.61
41062;BME280;26812;42.662;23.352;2023-09-08T10:36:28;95343.63;;;25.74;37.12
41062;BME280;26812;42.662;23.352;2023-09-08T10:38:53;95345.97;;;25.65;37.99
41062;BME280;26812;42.662;23.352;2023-09-08T10:43:55;95349.97;;;26.19;36.79
41062;BME280;26812;42.662;23.352;2023-09-08T10:46:30;95344.91;;;26.14;37.17
41062;BME280;26812;42.662;23.352;2023-09-08T10:49:04;95339.84;;;26.06;37.04
41062;BME280;26812;42.662;23.352;2023-09-08T10:51:29;95351.25;;;26.11;37.30
41062;BME280;26812;42.662;23.352;2023-09-08T10:53:55;95351.75;;;25.92;37.56
41062;BME280;26812;42.662;23.352;2023-09-08T10:56:20;95337.94;;;25.95;37.15
41062;BME280;26812;42.662;23.352;2023-09-08T10:58:51;95337.53;;;25.97;37.48
41062;BME280;26812;42.662;23.352;2023-09-08T11:01:19;95347.16;;;25.71;38.01
41062;BME280;26812;42.662;23.352;2023-09-08T11:03:46;95342.03;;;25.73;38.66
41062;BME280;26812;42.662;23.352;2023-09-08T11:06:17;95336.50;;;25.77;38.58
41062;BME280;26812;42.662;23.352;2023-09-08T11:08:44;95337.91;;;26.03;37.86
41062;BME280;26812;42.662;23.352;2023-09-08T11:11:11;95337.34;;;25.66;38.29
41062;BME280;26812;42.662;23.352;2023-09-08T11:13:37;95339.69;;;25.72;38.55
41062;BME280;26812;42.662;23.352;2023-09-08T11:16:05;95346.09;;;25.51;38.66
41062;BME280;26812;42.662;23.352;2023-09-08T11:18:31;95336.94;;;25.72;38.18
41062;BME280;26812;42.662;23.352;2023-09-08T11:21:00;95323.13;;;25.72;37.65
41062;BME280;26812;42.662;23.352;2023-09-08T11:23:26;95330.41;;;25.33;38.85
41062;BME280;26812;42.662;23.352;2023-09-08T11:25:52;95323.38;;;25.18;39.80
41062;BME280;26812;42.662;23.352;2023-09-08T11:28:20;95332.84;;;25.21;39.51
41062;BME280;26812;42.662;23.352;2023-09-08T11:30:47;95318.22;;;25.27;39.15
41062;BME280;26812;42.662;23.352;2023-09-08T11:33:17;95315.41;;;25.42;39.15
41062;BME280;26812;42.662;23.352;2023-09-08T11:35:45;95331.53;;;25.39;39.19
41062;BME280;26812;42.662;23.352;2023-09-08T11:38:11;95325.22;;;25.46;38.86
41062;BME280;26812;42.662;23.352;2023-09-08T11:40:37;95304.81;;;25.29;38.82
41062;BME280;26812;42.662;23.352;2023-09-08T11:43:03;95288.53;;;25.53;38.38
41062;BME280;26812;42.662;23.352;2023-09-08T11:45:30;95320.34;;;26.23;37.95
41062;BME280;26812;42.662;23.352;2023-09-08T11:47:56;95305.81;;;26.19;37.63
41062;BME280;26812;42.662;23.352;2023-09-08T11:50:22;95307.75;;;26.22;37.92
41062;BME280;26812;42.662;23.352;2023-09-08T11:52:51;95310.88;;;26.24;37.77
41062;BME280;26812;42.662;23.352;2023-09-08T11:55:19;95305.53;;;26.07;38.00
41062;BME280;26812;42.662;23.352;2023-09-08T11:57:48;95297.66;;;26.05;38.49
41062;BME280;26812;42.662;23.352;2023-09-08T12:00:15;95305.03;;;26.60;37.25
41062;BME280;26812;42.662;23.352;2023-09-08T12:02:43;95291.38;;;26.46;37.66
41062;BME280;26812;42.662;23.352;2023-09-08T12:05:27;95299.56;;;26.94;36.48
41062;BME280;26812;42.662;23.352;2023-09-08T12:07:55;95295.59;;;26.99;35.89
41062;BME280;26812;42.662;23.352;2023-09-08T12:10:24;95291.69;;;26.89;35.79
41062;BME280;26812;42.662;23.352;2023-09-08T12:12:52;95300.66;;;27.04;35.69
41062;BME280;26812;42.662;23.352;2023-09-08T12:17:58;95286.56;;;26.87;36.90
41062;BME280;26812;42.662;23.352;2023-09-08T12:20:24;95283.31;;;27.00;35.75
41062;BME280;26812;42.662;23.352;2023-09-08T12:22:50;95290.44;;;26.93;36.15
41062;BME280;26812;42.662;23.352;2023-09-08T12:25:16;95285.56;;;26.74;35.64
41062;BME280;26812;42.662;23.352;2023-09-08T12:27:42;95274.78;;;26.49;36.26
41062;BME280;26812;42.662;23.352;2023-09-08T12:30:08;95274.75;;;26.87;36.20
41062;BME280;26812;42.662;23.352;2023-09-08T12:32:35;95259.28;;;27.27;34.93
41062;BME280;26812;42.662;23.352;2023-09-08T12:35:03;95262.44;;;27.52;34.51
41062;BME280;26812;42.662;23.352;2023-09-08T12:37:29;95269.06;;;27.62;34.17
41062;BME280;26812;42.662;23.352;2023-09-08T12:39:56;95260.81;;;27.55;34.35
41062;BME280;26812;42.662;23.352;2023-09-08T12:42:21;95260.19;;;27.44;34.99
41062;BME280;26812;42.662;23.352;2023-09-08T12:44:51;95262.28;;;27.67;34.61
41062;BME280;26812;42.662;23.352;2023-09-08T12:47:16;95257.06;;;27.42;34.43
41062;BME280;26812;42.662;23.352;2023-09-08T12:49:41;95257.41;;;26.83;35.20
41062;BME280;26812;42.662;23.352;2023-09-08T12:52:07;95249.31;;;27.03;36.08
41062;BME280;26812;42.662;23.352;2023-09-08T12:54:32;95253.38;;;27.25;34.79
41062;BME280;26812;42.662;23.352;2023-09-08T12:56:57;95245.34;;;27.61;35.03
41062;BME280;26812;42.662;23.352;2023-09-08T12:59:23;95249.50;;;28.00;34.63